Latest Coastal Weather Observations for Kingfish B

IDV60701

Issued at 8:25 pm EST Thursday 2 October 2014 (issued every 10 minutes, with the page automatically refreshed every 10 minutes)

About coastal observations | Map of coastal stations | Coastal observations for VIC | Marine services | Other Formats
Station Details ID: 400139 Name: KINGFISH B (PLATFORM) Lat: -38.60 Lon: 148.19 Height: 31.4 m
Data from the previous 72 hours. | See also: Recent months for locations in Victoria
Date/Time
EST
Temp

°C
Wind Pressure Rain
since 9am
mm
Weather Cloud Vis
km
Sea
Height
m
Swell
Dir
 
Speed
knots
Gust
knots
hPa Trend Height
m
Period
s
Dir
02/07:10pm 14.0 SW 25 30 1019.7 - - - - - - - - -
02/07:00pm 13.9 SW 25 31 1019.7 - - - - - - - - -
02/06:50pm 13.7 SW 25 30 1019.7 - - - - - - - - -
02/06:40pm 13.7 SW 24 29 1019.6 - - - - - - - - -
02/06:30pm 13.7 SW 27 32 1019.2 - - - - - - - - -
02/06:20pm 13.8 SW 26 32 1019.2 - - - - - - - - -
02/06:10pm 13.9 SW 26 29 1019.0 - - - - - - - - -
02/06:00pm 14.0 SW 24 28 1019.0 - - - - - - - - -
02/05:50pm 14.0 SW 25 29 1019.0 - - - - - - - - -
02/05:40pm 14.0 SW 24 29 1019.0 - - - - - - - - -
02/05:30pm 14.0 SW 25 31 1018.9 - - - - - - - - -
02/05:20pm 14.0 SW 26 32 1018.8 - - - - - - - - -
02/05:10pm 14.1 SW 24 30 1018.7 - - - - - - - - -
02/05:00pm 14.2 SW 22 27 1018.7 - - - - - - - - -
02/04:50pm 14.2 SW 22 27 1018.7 - - - - - - - - -
02/04:40pm 14.2 SW 24 28 1018.6 - - - - - - - - -
02/04:30pm 14.3 SW 24 28 1018.6 - - - - - - - - -
02/04:20pm 14.4 SW 24 29 1018.5 - - - - - - - - -
02/04:10pm 14.4 SW 25 31 1018.4 - - - - - - - - -
02/04:00pm 14.5 SW 27 33 1018.3 - - - - - - - - -
02/03:50pm 14.6 SW 25 30 1018.3 - - - - - - - - -
02/03:40pm 14.6 SW 24 28 1018.3 - - - - - - - - -
02/03:30pm 14.6 SW 24 30 1018.3 - - - - - - - - -
02/03:20pm 14.5 SW 24 28 1018.3 - - - - - - - - -
02/03:00pm 14.8 SW 21 26 1018.1 - - - - - - - - -
02/02:50pm 14.8 SW 21 24 1018.1 - - - - - - - - -
02/02:40pm 14.8 SW 22 26 1018.1 - - - - - - - - -
02/02:30pm 14.9 SW 22 27 1018.1 - - - - - - - - -
02/02:20pm 14.9 WSW 21 26 1018.3 - - - - - - - - -
02/02:10pm 15.0 WSW 21 25 1018.3 - - - - - - - - -
02/02:00pm 15.1 SW 24 32 1018.0 - - - - - - - - -
02/01:50pm 15.1 WSW 28 34 1017.7 - - - - - - - - -
02/01:40pm 15.2 WSW 26 32 1018.0 - - - - - - - - -
02/01:30pm 15.2 WSW 24 29 1018.1 - - - - - - - - -
02/01:20pm 15.1 WSW 25 29 1017.9 - - - - - - - - -
02/01:10pm 15.0 WSW 24 30 1017.9 - - - - - - - - -
02/01:00pm 14.9 SW 23 28 1018.3 - - - - - - - - -
02/12:50pm 15.1 SW 25 30 1018.1 - - - - - - - - -
02/12:40pm 15.2 SW 25 32 1018.2 - - - - - - - - -
02/12:30pm 15.1 SW 21 29 1018.5 - - - - - - - - -
02/12:20pm 14.9 SW 21 26 1018.5 - - - - - - - - -
02/12:10pm 15.3 SW 23 30 1018.5 - - - - - - - - -
02/12:00pm 15.5 WSW 22 28 1018.5 - - - - - - - - -
02/11:50am 15.5 WSW 24 28 1018.4 - - - - - - - - -
02/11:40am 15.5 WSW 25 29 1018.3 - - - - - - - - -
02/11:30am 15.3 WSW 25 30 1018.4 - - - - - - - - -
02/11:20am 15.3 WSW 26 31 1018.4 - - - - - - - - -
02/11:10am 15.6 WSW 21 26 1018.7 - - - - - - - - -
02/11:00am 15.6 WSW 22 26 1018.8 - - - - - - - - -
02/10:50am 15.4 WSW 23 28 1018.8 - - - - - - - - -
02/10:40am 15.3 WSW 22 27 1018.9 - - - - - - - - -
02/10:30am 15.3 WSW 23 27 1018.9 - - - - - - - - -
02/10:10am 15.2 WSW 23 28 1019.0 - - - - - - - - -
02/10:00am 14.9 WSW 21 24 1019.2 - - - - - - - - -
02/09:50am 14.5 WSW 21 26 1019.3 - - - - - - - - -
02/09:40am 14.6 WSW 22 25 1019.3 - - - - - - - - -
02/09:30am 14.5 WSW 23 29 1019.2 - - - - - - - - -
02/09:20am 14.5 WSW 26 31 1019.0 - - - - - - - - -
02/09:10am 14.5 WSW 25 32 1019.0 - - - - - - - - -
02/09:00am 14.4 WSW 25 28 1019.0 - - - - - - - - -
02/08:50am 14.4 WSW 23 28 1019.0 - - - - - - - - -
02/08:40am 14.0 WSW 22 30 1019.1 - - - - - - - - -
02/08:30am 14.1 WSW 22 27 1019.1 - - - - - - - - -
02/08:20am 14.3 WSW 25 29 1018.9 - - - - - - - - -
02/08:10am 14.2 WSW 22 28 1019.2 - - - - - - - - -
02/08:00am 13.8 WSW 23 28 1019.0 - - - - - - - - -
02/07:50am 13.7 WSW 26 30 1018.9 - - - - - - - - -
02/07:40am 13.7 WSW 22 28 1019.1 - - - - - - - - -
02/07:30am 13.7 WSW 22 27 1019.1 - - - - - - - - -
02/07:20am 13.5 WSW 22 28 1019.1 - - - - - - - - -
02/07:00am 13.4 WSW 20 25 1019.3 - - - - - - - - -
02/06:50am 13.2 WSW 20 25 1019.2 - - - - - - - - -
02/06:40am 13.1 WSW 21 26 1019.1 - - - - - - - - -
02/06:30am 13.0 W 22 26 1019.0 - - - - - - - - -
02/06:20am 13.1 W 24 28 1018.9 - - - - - - - - -
02/06:10am 13.1 W 25 30 1018.8 - - - - - - - - -
02/06:00am 13.2 WSW 24 30 1018.8 - - - - - - - - -
02/05:50am 13.2 WSW 22 27 1018.8 - - - - - - - - -
02/05:40am 13.2 WSW 23 28 1018.8 - - - - - - - - -
02/05:30am 13.1 WSW 22 28 1018.8 - - - - - - - - -
02/05:20am 13.2 W 24 30 1018.7 - - - - - - - - -
02/05:10am 13.1 WSW 23 27 1018.7 - - - - - - - - -
02/05:00am 13.0 W 25 31 1018.5 - - - - - - - - -
02/04:50am 13.0 W 24 29 1018.6 - - - - - - - - -
02/04:40am 13.0 W 24 28 1018.6 - - - - - - - - -
02/04:30am 13.0 W 22 26 1018.6 - - - - - - - - -
02/04:20am 13.1 W 23 26 1018.6 - - - - - - - - -
02/04:10am 13.1 W 22 28 1018.5 - - - - - - - - -
02/04:00am 13.1 W 22 25 1018.7 - - - - - - - - -
02/03:40am 13.0 W 23 26 1018.7 - - - - - - - - -
02/03:30am 13.1 WSW 23 26 1018.6 - - - - - - - - -
02/03:20am 13.1 WSW 23 28 1018.6 - - - - - - - - -
02/03:10am 13.3 W 22 28 1018.9 - - - - - - - - -
02/03:00am 13.3 WSW 24 28 1018.8 - - - - - - - - -
02/02:50am 13.4 WSW 22 27 1018.9 - - - - - - - - -
02/02:40am 13.3 WSW 23 28 1018.7 - - - - - - - - -
02/02:30am 13.3 WSW 21 28 1018.9 - - - - - - - - -
02/02:20am 13.2 W 24 28 1018.8 - - - - - - - - -
02/02:10am 13.3 W 22 28 1019.0 - - - - - - - - -
02/02:00am 13.2 WSW 21 25 1019.2 - - - - - - - - -
02/01:50am 13.1 WSW 21 27 1019.3 - - - - - - - - -
02/01:40am 13.2 W 22 26 1019.4 - - - - - - - - -
02/01:30am 13.2 W 20 24 1019.6 - - - - - - - - -
02/01:20am 13.2 W 19 23 1019.8 - - - - - - - - -
02/01:10am 13.2 WSW 22 26 1019.7 - - - - - - - - -
02/01:00am 13.2 WSW 23 26 1019.6 - - - - - - - - -
02/12:50am 13.2 WSW 22 25 1019.8 - - - - - - - - -
02/12:40am 13.2 WSW 20 24 1020.2 - - - - - - - - -
02/12:30am 13.2 WSW 18 23 1020.3 - - - - - - - - -
02/12:20am 13.1 WSW 19 24 1020.4 - - - - - - - - -
02/12:10am 13.0 WSW 23 28 1020.2 - - - - - - - - -
02/12:00am 13.1 WSW 23 27 1020.2 - - - - - - - - -
 
Date/Time
EST
Temp

°C
Wind Pressure Rain
since 9am
mm
Weather Cloud Vis
km
Sea
Height
m
Swell
Dir
 
Speed
knots
Gust
knots
hPa Trend Height
m
Period
s
Dir
01/11:50pm 13.1 WSW 21 26 1020.5 - - - - - - - - -
01/11:40pm 13.1 WSW 23 26 1020.4 - - - - - - - - -
01/11:30pm 13.1 WSW 22 26 1020.4 - - - - - - - - -
01/11:20pm 13.2 WSW 21 24 1020.6 - - - - - - - - -
01/11:10pm 13.3 WSW 20 24 1020.7 - - - - - - - - -
01/11:00pm 13.0 WSW 19 23 1020.8 - - - - - - - - -
01/10:50pm 13.0 WSW 19 24 1020.8 - - - - - - - - -
01/10:40pm 13.0 WSW 18 24 1020.9 - - - - - - - - -
01/10:30pm 12.9 SW 20 24 1020.8 - - - - - - - - -
01/10:20pm 12.9 SW 21 24 1020.8 - - - - - - - - -
01/10:10pm 12.8 SW 21 25 1020.7 - - - - - - - - -
01/10:00pm 12.8 SW 22 26 1020.8 - - - - - - - - -
01/09:50pm 12.8 SW 25 28 1020.7 - - - - - - - - -
01/09:40pm 12.8 SW 25 29 1020.8 - - - - - - - - -
01/09:20pm 14.1 SW 23 28 1020.7 - - - - - - - - -
01/09:10pm 13.3 SW 24 29 1020.7 - - - - - - - - -
01/09:00pm 13.1 SW 24 29 1020.8 - - - - - - - - -
01/08:50pm 13.1 SW 22 26 1020.9 - - - - - - - - -
01/08:40pm 13.0 SW 25 28 1021.0 - - - - - - - - -
01/08:30pm 13.0 SW 26 31 1021.1 - - - - - - - - -
01/08:20pm 13.1 SW 25 30 1021.2 - - - - - - - - -
01/08:10pm 13.0 SW 26 31 1021.0 - - - - - - - - -
01/08:00pm 13.2 SW 26 31 1020.9 - - - - - - - - -
01/07:50pm 13.2 SW 24 28 1020.9 - - - - - - - - -
01/07:40pm 13.2 SW 23 28 1021.1 - - - - - - - - -
01/07:30pm 12.9 SW 23 27 1021.0 - - - - - - - - -
01/07:20pm 12.7 SW 23 27 1021.0 - - - - - - - - -
01/07:10pm 13.0 SW 27 36 1021.0 - - - - - - - - -
01/07:00pm 13.1 SW 23 28 1021.0 - - - - - - - - -
01/06:40pm 12.9 SW 24 28 1021.0 - - - - - - - - -
01/06:30pm 12.8 SW 23 28 1021.0 - - - - - - - - -
01/06:20pm 12.8 SW 22 27 1021.0 - - - - - - - - -
01/06:10pm 12.8 SW 24 29 1021.0 - - - - - - - - -
01/06:00pm 12.8 SW 25 29 1020.7 - - - - - - - - -
01/05:50pm 12.9 SW 24 29 1020.6 - - - - - - - - -
01/05:40pm 12.9 SW 23 27 1020.4 - - - - - - - - -
01/05:30pm 12.9 SW 24 28 1020.2 - - - - - - - - -
01/05:20pm 12.8 SW 24 28 1020.1 - - - - - - - - -
01/05:10pm 12.7 SW 21 27 1020.3 - - - - - - - - -
01/05:00pm 12.7 SW 21 24 1020.3 - - - - - - - - -
01/04:50pm 12.9 SW 20 24 1020.2 - - - - - - - - -
01/04:40pm 12.6 SW 22 25 1020.1 - - - - - - - - -
01/04:30pm 12.4 SW 22 28 1020.2 - - - - - - - - -
01/04:20pm 12.8 SW 22 28 1020.4 - - - - - - - - -
01/04:10pm 13.0 SW 21 27 1020.2 - - - - - - - - -
01/04:00pm 13.3 SW 21 26 1020.4 - - - - - - - - -
01/03:50pm 13.4 SW 20 23 1020.3 - - - - - - - - -
01/03:40pm 13.6 SW 20 24 1020.2 - - - - - - - - -
01/03:30pm 13.5 SW 21 24 1020.0 - - - - - - - - -
01/03:20pm 13.4 SW 21 25 1020.1 - - - - - - - - -
01/03:10pm 13.4 SW 20 24 1020.1 - - - - - - - - -
01/03:00pm 13.2 SW 22 25 1020.0 - - - - - - - - -
01/02:50pm 13.3 SW 21 24 1020.1 - - - - - - - - -
01/02:40pm 13.4 SW 22 26 1020.0 - - - - - - - - -
01/02:30pm 13.4 SW 21 26 1019.9 - - - - - - - - -
01/02:20pm 13.4 SW 23 27 1019.8 - - - - - - - - -
01/02:10pm 13.6 SW 22 26 1019.8 - - - - - - - - -
01/02:00pm 13.6 SW 22 28 1019.7 - - - - - - - - -
01/01:50pm 13.6 WSW 21 26 1019.8 - - - - - - - - -
01/01:40pm 13.6 SW 22 28 1019.7 - - - - - - - - -
01/01:30pm 13.5 SW 21 25 1019.5 - - - - - - - - -
01/01:20pm 13.7 SW 22 30 1019.7 - - - - - - - - -
01/01:10pm 13.6 SW 22 26 1019.6 - - - - - - - - -
01/01:00pm 13.5 SW 22 27 1019.7 - - - - - - - - -
01/12:50pm 13.5 SW 24 28 1019.7 - - - - - - - - -
01/12:40pm 13.6 SW 24 29 1019.6 - - - - - - - - -
01/12:30pm 13.8 SW 24 28 1019.5 - - - - - - - - -
01/12:20pm 13.8 SW 22 26 1019.5 - - - - - - - - -
01/12:10pm 13.9 SW 21 25 1019.5 - - - - - - - - -
01/12:00pm 13.7 SW 22 27 1019.6 - - - - - - - - -
01/11:50am 13.6 SW 24 28 1019.7 - - - - - - - - -
01/11:40am 13.6 SW 25 29 1019.5 - - - - - - - - -
01/11:30am 13.8 SW 23 28 1019.5 - - - - - - - - -
01/11:20am 14.1 SW 23 28 1019.8 - - - - - - - - -
01/11:10am 14.3 SW 23 27 1019.8 - - - - - - - - -
01/11:00am 14.4 SW 22 26 1019.8 - - - - - - - - -
01/10:50am 14.3 SW 23 27 1019.5 - - - - - - - - -
01/10:40am 14.2 SW 24 28 1019.6 - - - - - - - - -
01/10:30am 14.2 SW 24 28 1019.5 - - - - - - - - -
01/10:10am 14.2 SW 26 30 1019.6 - - - - - - - - -
01/10:00am 14.1 SW 26 29 1019.6 - - - - - - - - -
01/09:50am 14.3 SW 28 31 1019.7 - - - - - - - - -
01/09:40am 14.3 SW 27 32 1019.8 - - - - - - - - -
01/09:30am 14.0 SW 26 30 1019.8 - - - - - - - - -
01/09:20am 14.4 SW 25 30 1019.5 - - - - - - - - -
01/09:10am 14.4 SW 27 31 1019.3 - - - - - - - - -
01/09:00am 14.4 SW 27 32 1019.3 - - - - - - - - -
01/08:50am 14.4 SW 27 32 1018.8 - - - - - - - - -
01/08:40am 14.2 SW 28 32 1019.1 - - - - - - - - -
01/08:30am 14.3 SW 28 34 1018.7 - - - - - - - - -
01/08:20am 14.1 SW 27 31 1018.7 - - - - - - - - -
01/08:10am 13.9 SSW 28 31 1018.8 - - - - - - - - -
01/08:00am 14.3 SSW 29 34 1018.6 - - - - - - - - -
01/07:50am 14.2 SW 29 33 1018.2 - - - - - - - - -
01/07:40am 14.0 SW 30 34 1017.6 - - - - - - - - -
01/07:30am 13.8 SSW 30 35 1018.2 - - - - - - - - -
01/07:20am 13.5 SSW 29 35 1017.9 - - - - - - - - -
01/07:10am 12.6 SSW 30 34 1017.8 - - - - - - - - -
01/07:00am 13.4 SSW 29 36 1017.7 - - - - - - - - -
01/06:50am 13.8 SW 28 34 1017.0 - - - - - - - - -
01/06:40am 13.5 SW 30 35 1016.2 - - - - - - - - -
01/06:30am 13.4 SW 29 36 1015.4 - - - - - - - - -
01/06:20am 13.4 SW 31 35 1015.1 - - - - - - - - -
01/06:10am 13.2 SW 30 37 1014.9 - - - - - - - - -
01/06:00am 13.0 SW 31 37 1015.0 - - - - - - - - -
01/05:50am 12.9 SW 30 36 1014.6 - - - - - - - - -
01/05:40am 12.7 SW 31 38 1014.7 - - - - - - - - -
01/05:30am 12.0 SW 31 36 1014.3 - - - - - - - - -
01/05:20am 11.9 SW 32 36 1014.5 - - - - - - - - -
01/05:10am 11.8 SW 30 39 1014.3 - - - - - - - - -
01/05:00am 11.5 SW 29 35 1014.1 - - - - - - - - -
01/04:50am 11.4 SW 30 35 1013.4 - - - - - - - - -
01/04:40am 11.3 SW 32 41 1013.6 - - - - - - - - -
01/04:30am 11.0 SW 33 38 1012.6 - - - - - - - - -
01/04:20am 10.9 SW 34 39 1012.5 - - - - - - - - -
01/04:10am 10.7 SW 28 36 1012.3 - - - - - - - - -
01/04:00am 10.7 SW 27 33 1012.2 - - - - - - - - -
01/03:50am 10.8 SW 31 37 1012.6 - - - - - - - - -
01/03:40am 10.6 SW 29 36 1011.8 - - - - - - - - -
01/03:20am 10.6 SW 31 39 1011.5 - - - - - - - - -
01/03:10am 10.1 SW 34 43 1011.3 - - - - - - - - -
01/03:00am 9.7 SW 32 40 1011.7 - - - - - - - - -
01/02:50am 10.4 SW 34 46 1011.0 - - - - - - - - -
01/02:40am 10.7 SW 35 41 1012.1 - - - - - - - - -
01/02:30am 10.5 SW 37 43 1011.6 - - - - - - - - -
01/02:20am 11.0 SW 36 45 1010.3 - - - - - - - - -
01/02:10am 10.8 SW 33 41 1010.1 - - - - - - - - -
01/02:00am 10.6 SW 36 43 1009.5 - - - - - - - - -
01/01:50am 11.3 SW 33 48 1009.4 - - - - - - - - -
01/01:40am 11.4 WSW 35 43 1009.1 - - - - - - - - -
01/01:30am 11.3 WSW 34 41 1009.1 - - - - - - - - -
01/01:20am 11.2 WSW 30 41 1009.4 - - - - - - - - -
01/01:10am 11.1 WSW 29 37 1009.4 - - - - - - - - -
01/01:00am 10.8 WSW 29 36 1009.3 - - - - - - - - -
01/12:50am 10.8 WSW 33 41 1009.0 - - - - - - - - -
01/12:40am 11.0 WSW 32 40 1009.4 - - - - - - - - -
01/12:30am 11.2 WSW 29 36 1009.4 - - - - - - - - -
01/12:10am 11.0 WSW 30 36 1009.2 - - - - - - - - -
01/12:00am 11.0 WSW 32 38 1009.1 - - - - - - - - -
 
Date/Time
EST
Temp

°C
Wind Pressure Rain
since 9am
mm
Weather Cloud Vis
km
Sea
Height
m
Swell
Dir
 
Speed
knots
Gust
knots
hPa Trend Height
m
Period
s
Dir
30/11:50pm 11.1 WSW 33 41 1008.7 - - - - - - - - -
30/11:40pm 11.3 WSW 32 38 1008.9 - - - - - - - - -
30/11:30pm 11.3 WSW 34 42 1008.8 - - - - - - - - -
30/11:20pm 11.4 WSW 34 43 1008.8 - - - - - - - - -
30/11:10pm 11.5 WSW 36 44 1008.7 - - - - - - - - -
30/11:00pm 12.1 WSW 31 43 1009.0 - - - - - - - - -
30/10:50pm 12.1 WSW 31 37 1008.8 - - - - - - - - -
30/10:40pm 12.0 WSW 31 39 1008.6 - - - - - - - - -
30/10:30pm 12.0 WSW 32 37 1008.4 - - - - - - - - -
30/10:20pm 11.9 WSW 31 37 1008.3 - - - - - - - - -
30/10:10pm 11.8 WSW 28 35 1008.4 - - - - - - - - -
30/10:00pm 11.5 WSW 28 34 1008.2 - - - - - - - - -
30/09:50pm 11.1 WSW 25 33 1008.3 - - - - - - - - -
30/09:40pm 10.9 WSW 28 36 1008.3 - - - - - - - - -
30/09:30pm 10.7 SW 31 38 1008.5 - - - - - - - - -
30/09:20pm 11.0 SW 32 43 1008.6 - - - - - - - - -
30/09:10pm 11.9 SW 28 34 1008.5 - - - - - - - - -
30/09:00pm 11.4 WSW 27 31 1008.4 - - - - - - - - -
30/08:50pm 12.2 WSW 28 48 1008.3 - - - - - - - - -
30/08:40pm 13.0 W 28 34 1007.8 - - - - - - - - -
30/08:30pm 13.0 W 28 33 1007.8 - - - - - - - - -
30/08:20pm 13.1 W 28 34 1007.5 - - - - - - - - -
30/08:10pm 13.1 W 29 34 1007.8 - - - - - - - - -
30/08:00pm 13.1 WSW 29 35 1007.4 - - - - - - - - -
30/07:50pm 13.0 WSW 28 34 1007.4 - - - - - - - - -
30/07:40pm 12.8 WSW 30 35 1006.6 - - - - - - - - -
30/07:30pm 12.9 WSW 31 38 1006.3 - - - - - - - - -
30/07:20pm 12.8 WSW 35 42 1005.6 - - - - - - - - -
30/07:10pm 12.6 WSW 33 40 1005.3 - - - - - - - - -
30/07:00pm 12.4 WSW 33 38 1005.2 - - - - - - - - -
30/06:50pm 12.0 WSW 31 37 1005.6 - - - - - - - - -
30/06:40pm 11.6 SW 31 42 1006.0 - - - - - - - - -
30/06:30pm 11.8 SW 40 49 1005.6 - - - - - - - - -
30/06:20pm 12.3 WSW 38 50 1005.4 - - - - - - - - -
30/06:10pm 12.5 WSW 36 43 1005.2 - - - - - - - - -
30/06:00pm 12.5 WSW 39 46 1005.0 - - - - - - - - -
30/05:40pm 11.8 SW 38 46 1004.4 - - - - - - - - -
30/05:30pm 12.1 SW 42 51 1004.2 - - - - - - - - -
30/05:20pm 12.4 SW 46 57 1003.6 - - - - - - - - -
30/05:10pm 12.9 SW 48 59 1002.9 - - - - - - - - -
30/05:00pm 13.4 SW 48 59 1002.4 - - - - - - - - -
30/04:50pm 14.0 SW 40 51 1002.0 - - - - - - - - -
30/04:40pm 14.4 SW 37 49 1001.9 - - - - - - - - -
30/04:30pm 15.4 SW 37 52 1002.2 - - - - - - - - -
30/04:20pm 16.9 SW 34 44 1002.3 - - - - - - - - -
30/04:00pm 20.4 NW 17 22 1000.3 - - - - - - - - -
30/03:50pm 20.1 NW 15 19 1000.2 - - - - - - - - -
30/03:40pm 21.3 NW 20 27 1000.0 - - - - - - - - -
30/03:30pm 21.4 WNW 21 28 1000.0 - - - - - - - - -
30/03:20pm 20.0 WNW 16 27 1000.4 - - - - - - - - -
30/03:10pm 18.7 NW 13 21 1000.7 - - - - - - - - -
30/03:00pm 18.1 NNW 10 12 1000.6 - - - - - - - - -
30/02:50pm 17.8 NNW 10 12 1000.5 - - - - - - - - -
30/02:40pm 17.8 - 9 11 1000.4 - - - - - - - - -
30/02:20pm 17.9 N 8 9 1000.6 - - - - - - - - -
30/02:10pm 18.2 N 7 8 1000.7 - - - - - - - - -
30/02:00pm 18.4 NNE 7 10 1000.7 - - - - - - - - -
30/01:50pm 18.5 NNE 4 5 1001.1 - - - - - - - - -
30/01:40pm 18.6 NNW 1 3 1001.4 - - - - - - - - -
30/01:30pm 18.8 N 3 6 1001.6 - - - - - - - - -
30/01:20pm 19.0 N 3 6 1001.9 - - - - - - - - -
30/01:10pm 19.1 N 3 6 1002.1 - - - - - - - - -
30/01:00pm 19.3 WSW 1 4 1002.5 - - - - - - - - -
30/12:50pm 19.3 WSW 2 5 1002.8 - - - - - - - - -
30/12:40pm 19.4 WSW 1 2 1003.0 - - - - - - - - -
30/12:30pm 19.3 WSW 1 2 1003.1 - - - - - - - - -
30/12:20pm 19.5 W 1 2 1003.0 - - - - - - - - -
30/12:10pm 19.0 W 1 2 1003.1 - - - - - - - - -
30/12:00pm 19.0 W 0 1 1003.4 - - - - - - - - -
30/11:50am 18.5 W 0 1 1003.8 - - - - - - - - -
30/11:40am 19.7 W 2 4 1004.1 - - - - - - - - -
30/11:30am 19.4 W 4 5 1004.3 - - - - - - - - -
30/11:20am 19.1 W 4 5 1004.6 - - - - - - - - -
30/11:10am 19.2 W 2 5 1004.9 - - - - - - - - -
30/11:00am 18.4 WNW 2 4 1005.2 - - - - - - - - -
30/10:50am 17.9 NW 2 3 1005.5 - - - - - - - - -
30/10:40am 17.8 NW 1 2 1005.7 - - - - - - - - -
30/10:30am 17.8 NW 2 2 1005.9 - - - - - - - - -
30/10:20am 18.0 NNW 2 4 1006.1 - - - - - - - - -
30/10:10am 18.8 NW 2 4 1006.3 - - - - - - - - -
30/10:00am 19.1 WNW 1 2 1006.6 - - - - - - - - -
30/09:50am 18.9 WNW 1 2 1006.6 - - - - - - - - -
30/09:40am 18.6 WNW 2 3 1006.8 - - - - - - - - -
30/09:30am 18.6 W 2 3 1006.9 - - - - - - - - -
30/09:20am 18.4 WSW 3 5 1007.0 - - - - - - - - -
30/09:10am 18.7 WSW 5 7 1007.2 - - - - - - - - -
30/09:00am 18.8 WSW 7 10 1007.4 - - - - - - - - -
30/08:50am 18.9 WSW 10 12 1007.7 - - - - - - - - -
30/08:40am 19.3 WSW 9 13 1007.8 - - - - - - - - -
30/08:30am 19.4 WSW 11 14 1008.0 - - - - - - - - -
30/08:20am 18.9 WNW 8 14 1007.9 - - - - - - - - -
30/08:10am 18.8 NW 11 14 1007.7 - - - - - - - - -
30/07:50am 18.1 NNW 12 16 1007.5 - - - - - - - - -
30/07:40am 18.0 N 14 17 1007.4 - - - - - - - - -
30/07:30am 18.1 N 14 16 1007.5 - - - - - - - - -
30/07:20am 18.3 N 14 16 1007.6 - - - - - - - - -
30/07:10am 18.4 N 15 17 1007.6 - - - - - - - - -
30/07:00am 18.5 N 14 17 1007.6 - - - - - - - - -
30/06:50am 18.6 N 13 16 1007.6 - - - - - - - - -
30/06:40am 18.7 N 13 15 1007.6 - - - - - - - - -
30/06:30am 18.6 N 13 16 1007.6 - - - - - - - - -
30/06:20am 18.5 N 14 16 1007.6 - - - - - - - - -
30/06:10am 18.5 N 13 16 1007.7 - - - - - - - - -
30/06:00am 18.4 N 15 17 1007.8 - - - - - - - - -
30/05:50am 18.3 N 15 17 1007.9 - - - - - - - - -
30/05:40am 17.9 N 14 16 1008.0 - - - - - - - - -
30/05:30am 17.5 N 14 15 1008.0 - - - - - - - - -
30/05:20am 16.8 N 14 16 1008.0 - - - - - - - - -
30/05:10am 16.3 N 14 15 1008.0 - - - - - - - - -
30/05:00am 16.0 N 14 16 1008.0 - - - - - - - - -
30/04:50am 16.0 N 14 16 1008.0 - - - - - - - - -
30/04:40am 16.2 N 13 16 1008.0 - - - - - - - - -
30/04:20am 16.5 NNW 12 16 1008.2 - - - - - - - - -
30/04:10am 16.7 NW 14 15 1008.2 - - - - - - - - -
30/04:00am 16.4 NW 13 15 1008.3 - - - - - - - - -
30/03:50am 15.9 NW 12 14 1008.3 - - - - - - - - -
30/03:40am 15.8 NNW 11 14 1008.4 - - - - - - - - -
30/03:30am 15.9 NNW 12 14 1008.4 - - - - - - - - -
30/03:20am 15.8 NNW 12 14 1008.5 - - - - - - - - -
30/03:10am 15.7 NW 12 13 1008.6 - - - - - - - - -
30/02:50am 15.2 NNW 11 13 1008.8 - - - - - - - - -
30/02:40am 15.0 NNW 9 11 1008.9 - - - - - - - - -
30/02:30am 14.9 NNW 8 9 1009.1 - - - - - - - - -
30/02:20am 14.8 NNW 8 9 1009.3 - - - - - - - - -
30/02:10am 14.7 NNW 8 10 1009.4 - - - - - - - - -
30/02:00am 14.5 NNW 8 9 1009.6 - - - - - - - - -
30/01:50am 14.5 NNW 8 10 1009.8 - - - - - - - - -
30/01:40am 14.5 N 9 11 1009.9 - - - - - - - - -
30/01:30am 14.5 N 9 11 1009.9 - - - - - - - - -
30/01:20am 14.6 N 8 10 1010.1 - - - - - - - - -
30/01:10am 14.7 N 9 11 1010.2 - - - - - - - - -
30/01:00am 14.8 N 8 11 1010.3 - - - - - - - - -
30/12:50am 14.8 N 7 10 1010.4 - - - - - - - - -
30/12:40am 14.8 N 7 10 1010.5 - - - - - - - - -
30/12:30am 15.0 - 8 10 1010.6 - - - - - - - - -
30/12:20am 15.1 N 8 9 1010.6 - - - - - - - - -
30/12:10am 15.2 N 9 10 1010.8 - - - - - - - - -
30/12:00am 15.4 N 10 12 1010.9 - - - - - - - - -
 
Date/Time
EST
Temp

°C
Wind Pressure Rain
since 9am
mm
Weather Cloud Vis
km
Sea
Height
m
Swell
Dir
 
Speed
knots
Gust
knots
hPa Trend Height
m
Period
s
Dir
29/11:50pm 15.4 NNE 10 13 1011.0 - - - - - - - - -
29/11:40pm 15.4 NNE 11 12 1011.1 - - - - - - - - -
29/11:30pm 15.4 NNE 10 11 1011.2 - - - - - - - - -
29/11:20pm 15.4 NNE 11 13 1011.3 - - - - - - - - -
29/11:10pm 15.4 NNE 11 13 1011.3 - - - - - - - - -
29/11:00pm 15.5 NNE 12 14 1011.3 - - - - - - - - -
29/10:50pm 15.4 NNE 13 15 1011.3 - - - - - - - - -
29/10:40pm 15.4 NNE 13 16 1011.2 - - - - - - - - -
29/10:30pm 15.3 NNE 14 16 1011.2 - - - - - - - - -
29/10:20pm 15.3 NE 15 17 1011.3 - - - - - - - - -
29/10:10pm 15.3 NE 15 17 1011.4 - - - - - - - - -
29/10:00pm 15.3 NE 15 17 1011.4 - - - - - - - - -
29/09:50pm 15.2 NE 16 18 1011.6 - - - - - - - - -
29/09:40pm 15.3 NE 14 16 1011.8 - - - - - - - - -
29/09:30pm 15.4 NNE 14 16 1012.0 - - - - - - - - -
29/09:10pm 15.3 NNE 12 14 1012.4 - - - - - - - - -
29/09:00pm 15.3 NNE 13 16 1012.5 - - - - - - - - -
29/08:50pm 15.4 NNE 12 14 1012.6 - - - - - - - - -
29/08:40pm 15.4 NNE 12 15 1012.8 - - - - - - - - -
29/08:30pm 15.4 NNE 11 14 1012.8 - - - - - - - - -

Other Formats:

Comma delimited format used in spreadsheet applications
http://www.bom.gov.au/fwo/IDV60701/IDV60701.55039.axf

JavaScript Object Notation format (JSON) in row-major order
http://www.bom.gov.au/fwo/IDV60701/IDV60701.55039.json